sensor_id;sensor_type;location;lat;lon;timestamp;P1;durP1;ratioP1;P2;durP2;ratioP2
3052;SDS011;1536;51.098;6.414;2023-08-20T00:00:53;5.00;;;4.60;;
3052;SDS011;1536;51.098;6.414;2023-08-20T00:03:22;12.33;;;5.10;;
3052;SDS011;1536;51.098;6.414;2023-08-20T00:05:49;5.47;;;4.97;;
3052;SDS011;1536;51.098;6.414;2023-08-20T00:08:18;5.93;;;5.33;;
3052;SDS011;1536;51.098;6.414;2023-08-20T00:10:44;5.87;;;5.17;;
3052;SDS011;1536;51.098;6.414;2023-08-20T00:13:11;10.27;;;6.00;;
3052;SDS011;1536;51.098;6.414;2023-08-20T00:15:38;5.57;;;4.97;;
3052;SDS011;1536;51.098;6.414;2023-08-20T00:18:06;5.80;;;5.30;;
3052;SDS011;1536;51.098;6.414;2023-08-20T00:20:35;7.87;;;4.73;;
3052;SDS011;1536;51.098;6.414;2023-08-20T00:23:03;6.17;;;5.13;;
3052;SDS011;1536;51.098;6.414;2023-08-20T00:25:31;5.43;;;4.93;;
3052;SDS011;1536;51.098;6.414;2023-08-20T00:27:58;7.93;;;5.13;;
3052;SDS011;1536;51.098;6.414;2023-08-20T00:30:25;7.50;;;5.07;;
3052;SDS011;1536;51.098;6.414;2023-08-20T00:32:51;5.10;;;4.60;;
3052;SDS011;1536;51.098;6.414;2023-08-20T00:35:18;9.03;;;6.00;;
3052;SDS011;1536;51.098;6.414;2023-08-20T00:37:46;7.87;;;5.43;;
3052;SDS011;1536;51.098;6.414;2023-08-20T00:40:14;6.20;;;5.60;;
3052;SDS011;1536;51.098;6.414;2023-08-20T00:42:43;6.57;;;5.87;;
3052;SDS011;1536;51.098;6.414;2023-08-20T00:45:09;7.43;;;5.70;;
3052;SDS011;1536;51.098;6.414;2023-08-20T00:47:37;7.10;;;5.80;;
3052;SDS011;1536;51.098;6.414;2023-08-20T00:50:04;9.23;;;5.50;;
3052;SDS011;1536;51.098;6.414;2023-08-20T00:52:33;9.37;;;5.33;;
3052;SDS011;1536;51.098;6.414;2023-08-20T00:55:02;10.10;;;5.80;;
3052;SDS011;1536;51.098;6.414;2023-08-20T00:57:34;10.13;;;5.57;;
3052;SDS011;1536;51.098;6.414;2023-08-20T01:00:01;8.70;;;6.10;;
3052;SDS011;1536;51.098;6.414;2023-08-20T01:02:32;8.67;;;5.23;;
3052;SDS011;1536;51.098;6.414;2023-08-20T01:04:59;10.23;;;5.50;;
3052;SDS011;1536;51.098;6.414;2023-08-20T01:07:29;8.23;;;5.83;;
3052;SDS011;1536;51.098;6.414;2023-08-20T01:10:06;8.70;;;5.87;;
3052;SDS011;1536;51.098;6.414;2023-08-20T01:12:38;10.17;;;6.40;;
3052;SDS011;1536;51.098;6.414;2023-08-20T01:15:07;7.93;;;6.40;;
3052;SDS011;1536;51.098;6.414;2023-08-20T01:17:38;7.87;;;5.80;;
3052;SDS011;1536;51.098;6.414;2023-08-20T01:20:06;7.77;;;6.17;;
3052;SDS011;1536;51.098;6.414;2023-08-20T01:22:41;13.47;;;6.17;;
3052;SDS011;1536;51.098;6.414;2023-08-20T01:25:32;7.77;;;6.10;;
3052;SDS011;1536;51.098;6.414;2023-08-20T01:28:24;8.07;;;6.30;;
3052;SDS011;1536;51.098;6.414;2023-08-20T01:30:52;12.87;;;6.67;;
3052;SDS011;1536;51.098;6.414;2023-08-20T01:33:20;9.40;;;5.70;;
3052;SDS011;1536;51.098;6.414;2023-08-20T01:35:47;11.37;;;5.77;;
3052;SDS011;1536;51.098;6.414;2023-08-20T01:38:13;7.87;;;5.33;;
3052;SDS011;1536;51.098;6.414;2023-08-20T01:40:40;6.10;;;5.50;;
3052;SDS011;1536;51.098;6.414;2023-08-20T01:43:07;5.73;;;5.10;;
3052;SDS011;1536;51.098;6.414;2023-08-20T01:45:35;7.60;;;5.40;;
3052;SDS011;1536;51.098;6.414;2023-08-20T01:48:16;5.77;;;5.20;;
3052;SDS011;1536;51.098;6.414;2023-08-20T01:50:43;9.30;;;5.67;;
3052;SDS011;1536;51.098;6.414;2023-08-20T01:53:10;9.07;;;5.43;;
3052;SDS011;1536;51.098;6.414;2023-08-20T01:55:38;11.93;;;6.47;;
3052;SDS011;1536;51.098;6.414;2023-08-20T01:58:11;8.87;;;6.87;;
3052;SDS011;1536;51.098;6.414;2023-08-20T02:00:39;10.87;;;7.57;;
3052;SDS011;1536;51.098;6.414;2023-08-20T02:03:06;12.60;;;6.63;;
3052;SDS011;1536;51.098;6.414;2023-08-20T02:05:33;9.63;;;6.27;;
3052;SDS011;1536;51.098;6.414;2023-08-20T02:07:59;8.63;;;7.30;;
3052;SDS011;1536;51.098;6.414;2023-08-20T02:10:27;7.67;;;6.47;;
3052;SDS011;1536;51.098;6.414;2023-08-20T02:12:53;11.83;;;7.00;;
3052;SDS011;1536;51.098;6.414;2023-08-20T02:15:20;11.67;;;6.67;;
3052;SDS011;1536;51.098;6.414;2023-08-20T02:17:48;10.60;;;5.90;;
3052;SDS011;1536;51.098;6.414;2023-08-20T02:20:15;9.50;;;7.30;;
3052;SDS011;1536;51.098;6.414;2023-08-20T02:22:42;11.13;;;7.70;;
3052;SDS011;1536;51.098;6.414;2023-08-20T02:25:09;11.60;;;9.20;;
3052;SDS011;1536;51.098;6.414;2023-08-20T02:27:36;12.70;;;8.97;;
3052;SDS011;1536;51.098;6.414;2023-08-20T02:30:03;12.50;;;9.87;;
3052;SDS011;1536;51.098;6.414;2023-08-20T02:32:30;14.53;;;9.80;;
3052;SDS011;1536;51.098;6.414;2023-08-20T02:35:00;14.43;;;9.60;;
3052;SDS011;1536;51.098;6.414;2023-08-20T02:37:30;10.47;;;9.37;;
3052;SDS011;1536;51.098;6.414;2023-08-20T02:39:57;11.43;;;9.63;;
3052;SDS011;1536;51.098;6.414;2023-08-20T02:42:23;15.40;;;9.37;;
3052;SDS011;1536;51.098;6.414;2023-08-20T02:44:50;12.97;;;8.60;;
3052;SDS011;1536;51.098;6.414;2023-08-20T02:47:17;12.10;;;11.00;;
3052;SDS011;1536;51.098;6.414;2023-08-20T02:49:43;11.60;;;9.33;;
3052;SDS011;1536;51.098;6.414;2023-08-20T02:52:12;11.10;;;8.63;;
3052;SDS011;1536;51.098;6.414;2023-08-20T02:54:39;10.60;;;8.50;;
3052;SDS011;1536;51.098;6.414;2023-08-20T02:57:05;12.67;;;8.70;;
3052;SDS011;1536;51.098;6.414;2023-08-20T02:59:33;12.20;;;9.23;;
3052;SDS011;1536;51.098;6.414;2023-08-20T03:02:00;9.90;;;8.90;;
3052;SDS011;1536;51.098;6.414;2023-08-20T03:04:28;10.27;;;9.00;;
3052;SDS011;1536;51.098;6.414;2023-08-20T03:06:55;10.67;;;9.10;;
3052;SDS011;1536;51.098;6.414;2023-08-20T03:09:25;14.83;;;10.20;;
3052;SDS011;1536;51.098;6.414;2023-08-20T03:11:52;14.37;;;9.53;;
3052;SDS011;1536;51.098;6.414;2023-08-20T03:14:18;13.93;;;9.50;;
3052;SDS011;1536;51.098;6.414;2023-08-20T03:16:45;15.57;;;10.67;;
3052;SDS011;1536;51.098;6.414;2023-08-20T03:19:14;12.60;;;9.83;;
3052;SDS011;1536;51.098;6.414;2023-08-20T03:21:41;12.03;;;9.23;;
3052;SDS011;1536;51.098;6.414;2023-08-20T03:24:08;15.57;;;10.13;;
3052;SDS011;1536;51.098;6.414;2023-08-20T03:26:36;13.17;;;9.03;;
3052;SDS011;1536;51.098;6.414;2023-08-20T03:29:05;12.27;;;8.90;;
3052;SDS011;1536;51.098;6.414;2023-08-20T03:31:32;16.17;;;9.80;;
3052;SDS011;1536;51.098;6.414;2023-08-20T03:33:58;13.03;;;10.17;;
3052;SDS011;1536;51.098;6.414;2023-08-20T03:36:25;14.30;;;10.30;;
3052;SDS011;1536;51.098;6.414;2023-08-20T03:38:52;12.50;;;9.93;;
3052;SDS011;1536;51.098;6.414;2023-08-20T03:41:18;13.90;;;10.83;;
3052;SDS011;1536;51.098;6.414;2023-08-20T03:43:46;15.00;;;10.97;;
3052;SDS011;1536;51.098;6.414;2023-08-20T03:46:13;14.33;;;10.03;;
3052;SDS011;1536;51.098;6.414;2023-08-20T03:48:41;12.40;;;10.70;;
3052;SDS011;1536;51.098;6.414;2023-08-20T03:51:08;11.87;;;10.53;;
3052;SDS011;1536;51.098;6.414;2023-08-20T03:53:35;12.73;;;11.10;;
3052;SDS011;1536;51.098;6.414;2023-08-20T03:56:01;17.17;;;10.93;;
3052;SDS011;1536;51.098;6.414;2023-08-20T03:58:28;16.00;;;11.20;;
3052;SDS011;1536;51.098;6.414;2023-08-20T04:00:56;18.77;;;11.80;;
3052;SDS011;1536;51.098;6.414;2023-08-20T04:03:23;11.97;;;10.70;;
3052;SDS011;1536;51.098;6.414;2023-08-20T04:05:50;16.30;;;11.57;;
3052;SDS011;1536;51.098;6.414;2023-08-20T04:08:16;11.90;;;10.43;;
3052;SDS011;1536;51.098;6.414;2023-08-20T04:10:43;18.33;;;10.70;;
3052;SDS011;1536;51.098;6.414;2023-08-20T04:13:10;14.93;;;11.23;;
3052;SDS011;1536;51.098;6.414;2023-08-20T04:15:38;15.03;;;11.57;;
3052;SDS011;1536;51.098;6.414;2023-08-20T04:18:07;11.87;;;10.67;;
3052;SDS011;1536;51.098;6.414;2023-08-20T04:20:34;12.93;;;10.73;;
3052;SDS011;1536;51.098;6.414;2023-08-20T04:23:00;14.73;;;10.90;;
3052;SDS011;1536;51.098;6.414;2023-08-20T04:25:27;11.33;;;10.13;;
3052;SDS011;1536;51.098;6.414;2023-08-20T04:27:54;17.73;;;11.03;;
3052;SDS011;1536;51.098;6.414;2023-08-20T04:30:20;15.23;;;10.50;;
3052;SDS011;1536;51.098;6.414;2023-08-20T04:32:47;13.00;;;11.20;;
3052;SDS011;1536;51.098;6.414;2023-08-20T04:35:15;13.80;;;11.00;;
3052;SDS011;1536;51.098;6.414;2023-08-20T04:37:42;14.60;;;11.53;;
3052;SDS011;1536;51.098;6.414;2023-08-20T04:40:09;16.20;;;12.70;;
3052;SDS011;1536;51.098;6.414;2023-08-20T04:42:37;12.50;;;10.87;;
3052;SDS011;1536;51.098;6.414;2023-08-20T04:48:26;15.40;;;12.37;;
3052;SDS011;1536;51.098;6.414;2023-08-20T04:50:54;14.77;;;11.60;;
3052;SDS011;1536;51.098;6.414;2023-08-20T04:53:21;17.87;;;12.13;;
3052;SDS011;1536;51.098;6.414;2023-08-20T04:55:47;15.27;;;11.93;;
3052;SDS011;1536;51.098;6.414;2023-08-20T04:58:14;12.43;;;10.90;;
3052;SDS011;1536;51.098;6.414;2023-08-20T05:00:42;13.43;;;11.53;;
3052;SDS011;1536;51.098;6.414;2023-08-20T05:03:08;18.87;;;12.10;;
3052;SDS011;1536;51.098;6.414;2023-08-20T05:05:35;14.30;;;11.50;;
3052;SDS011;1536;51.098;6.414;2023-08-20T05:08:04;13.10;;;11.77;;
3052;SDS011;1536;51.098;6.414;2023-08-20T05:10:31;12.53;;;11.23;;
3052;SDS011;1536;51.098;6.414;2023-08-20T05:12:58;10.90;;;9.80;;
3052;SDS011;1536;51.098;6.414;2023-08-20T05:15:24;14.30;;;11.37;;
3052;SDS011;1536;51.098;6.414;2023-08-20T05:17:51;13.20;;;10.87;;
3052;SDS011;1536;51.098;6.414;2023-08-20T05:20:18;14.00;;;12.27;;
3052;SDS011;1536;51.098;6.414;2023-08-20T05:22:45;13.17;;;11.60;;
3052;SDS011;1536;51.098;6.414;2023-08-20T05:25:13;14.23;;;12.73;;
3052;SDS011;1536;51.098;6.414;2023-08-20T05:27:39;18.20;;;12.60;;
3052;SDS011;1536;51.098;6.414;2023-08-20T05:30:06;15.67;;;12.33;;
3052;SDS011;1536;51.098;6.414;2023-08-20T05:32:34;14.77;;;12.07;;
3052;SDS011;1536;51.098;6.414;2023-08-20T05:35:01;19.10;;;14.77;;
3052;SDS011;1536;51.098;6.414;2023-08-20T05:37:29;18.00;;;14.33;;
3052;SDS011;1536;51.098;6.414;2023-08-20T05:39:55;18.30;;;13.60;;
3052;SDS011;1536;51.098;6.414;2023-08-20T05:42:24;16.43;;;13.73;;
3052;SDS011;1536;51.098;6.414;2023-08-20T05:44:50;20.47;;;13.47;;
3052;SDS011;1536;51.098;6.414;2023-08-20T05:47:18;17.40;;;13.73;;
3052;SDS011;1536;51.098;6.414;2023-08-20T05:49:44;17.40;;;15.00;;
3052;SDS011;1536;51.098;6.414;2023-08-20T05:52:11;22.63;;;15.47;;
3052;SDS011;1536;51.098;6.414;2023-08-20T05:54:38;20.97;;;15.67;;
3052;SDS011;1536;51.098;6.414;2023-08-20T05:57:05;22.33;;;16.33;;
3052;SDS011;1536;51.098;6.414;2023-08-20T05:59:33;19.30;;;15.33;;
3052;SDS011;1536;51.098;6.414;2023-08-20T06:02:00;26.57;;;16.10;;
3052;SDS011;1536;51.098;6.414;2023-08-20T06:04:27;19.97;;;15.63;;
3052;SDS011;1536;51.098;6.414;2023-08-20T06:06:54;25.67;;;17.80;;
3052;SDS011;1536;51.098;6.414;2023-08-20T06:09:21;18.50;;;15.20;;
3052;SDS011;1536;51.098;6.414;2023-08-20T06:11:48;20.60;;;16.30;;
3052;SDS011;1536;51.098;6.414;2023-08-20T06:14:15;15.73;;;14.03;;
3052;SDS011;1536;51.098;6.414;2023-08-20T06:16:43;17.40;;;15.30;;
3052;SDS011;1536;51.098;6.414;2023-08-20T06:19:10;17.37;;;14.57;;
3052;SDS011;1536;51.098;6.414;2023-08-20T06:21:36;20.53;;;14.80;;
3052;SDS011;1536;51.098;6.414;2023-08-20T06:24:04;19.47;;;15.87;;
3052;SDS011;1536;51.098;6.414;2023-08-20T06:26:31;29.03;;;14.97;;
3052;SDS011;1536;51.098;6.414;2023-08-20T06:28:57;20.40;;;14.37;;
3052;SDS011;1536;51.098;6.414;2023-08-20T06:31:24;23.13;;;15.70;;
3052;SDS011;1536;51.098;6.414;2023-08-20T06:33:52;18.83;;;15.20;;
3052;SDS011;1536;51.098;6.414;2023-08-20T06:36:19;23.20;;;15.83;;
3052;SDS011;1536;51.098;6.414;2023-08-20T06:38:46;17.50;;;15.30;;
3052;SDS011;1536;51.098;6.414;2023-08-20T06:41:12;21.67;;;16.13;;
3052;SDS011;1536;51.098;6.414;2023-08-20T06:43:39;19.77;;;15.70;;
3052;SDS011;1536;51.098;6.414;2023-08-20T06:46:06;20.97;;;15.60;;
3052;SDS011;1536;51.098;6.414;2023-08-20T06:48:34;18.90;;;16.07;;
3052;SDS011;1536;51.098;6.414;2023-08-20T06:51:09;23.67;;;16.70;;
3052;SDS011;1536;51.098;6.414;2023-08-20T06:53:37;19.23;;;16.23;;
3052;SDS011;1536;51.098;6.414;2023-08-20T06:56:05;20.67;;;14.97;;
3052;SDS011;1536;51.098;6.414;2023-08-20T06:58:33;17.60;;;14.10;;
3052;SDS011;1536;51.098;6.414;2023-08-20T07:01:00;22.47;;;15.50;;
3052;SDS011;1536;51.098;6.414;2023-08-20T07:03:32;21.03;;;13.93;;
3052;SDS011;1536;51.098;6.414;2023-08-20T07:05:59;18.73;;;14.90;;
3052;SDS011;1536;51.098;6.414;2023-08-20T07:08:27;17.77;;;13.13;;
3052;SDS011;1536;51.098;6.414;2023-08-20T07:10:53;22.03;;;14.53;;
3052;SDS011;1536;51.098;6.414;2023-08-20T07:13:20;17.83;;;13.70;;
3052;SDS011;1536;51.098;6.414;2023-08-20T07:15:48;17.43;;;13.23;;
3052;SDS011;1536;51.098;6.414;2023-08-20T07:18:14;18.37;;;14.80;;
3052;SDS011;1536;51.098;6.414;2023-08-20T07:20:41;19.20;;;13.90;;
3052;SDS011;1536;51.098;6.414;2023-08-20T07:23:08;21.70;;;14.60;;
3052;SDS011;1536;51.098;6.414;2023-08-20T07:25:37;13.67;;;12.27;;
3052;SDS011;1536;51.098;6.414;2023-08-20T07:28:04;19.37;;;13.50;;
3052;SDS011;1536;51.098;6.414;2023-08-20T07:30:31;20.20;;;15.20;;
3052;SDS011;1536;51.098;6.414;2023-08-20T07:32:58;19.13;;;14.90;;
3052;SDS011;1536;51.098;6.414;2023-08-20T07:35:25;17.90;;;13.10;;
3052;SDS011;1536;51.098;6.414;2023-08-20T07:37:52;21.10;;;14.87;;
3052;SDS011;1536;51.098;6.414;2023-08-20T07:40:19;17.20;;;13.97;;
3052;SDS011;1536;51.098;6.414;2023-08-20T07:42:47;16.63;;;14.93;;
3052;SDS011;1536;51.098;6.414;2023-08-20T07:45:15;20.27;;;13.73;;
3052;SDS011;1536;51.098;6.414;2023-08-20T07:47:42;22.53;;;15.30;;
3052;SDS011;1536;51.098;6.414;2023-08-20T07:50:09;18.40;;;12.63;;
3052;SDS011;1536;51.098;6.414;2023-08-20T07:52:36;21.67;;;15.50;;
3052;SDS011;1536;51.098;6.414;2023-08-20T07:55:03;19.07;;;13.80;;
3052;SDS011;1536;51.098;6.414;2023-08-20T07:57:30;20.43;;;14.73;;
3052;SDS011;1536;51.098;6.414;2023-08-20T07:59:58;20.23;;;15.17;;
3052;SDS011;1536;51.098;6.414;2023-08-20T08:02:24;21.93;;;14.80;;
3052;SDS011;1536;51.098;6.414;2023-08-20T08:04:51;18.90;;;15.60;;
3052;SDS011;1536;51.098;6.414;2023-08-20T08:07:18;19.60;;;14.70;;
3052;SDS011;1536;51.098;6.414;2023-08-20T08:09:44;21.33;;;16.00;;
3052;SDS011;1536;51.098;6.414;2023-08-20T08:12:11;19.30;;;15.63;;
3052;SDS011;1536;51.098;6.414;2023-08-20T08:14:38;20.57;;;15.73;;
3052;SDS011;1536;51.098;6.414;2023-08-20T08:17:06;23.90;;;14.60;;
3052;SDS011;1536;51.098;6.414;2023-08-20T08:19:32;22.43;;;16.97;;
3052;SDS011;1536;51.098;6.414;2023-08-20T08:21:59;23.77;;;18.70;;
3052;SDS011;1536;51.098;6.414;2023-08-20T08:24:26;23.20;;;17.20;;
3052;SDS011;1536;51.098;6.414;2023-08-20T08:26:52;22.17;;;16.03;;
3052;SDS011;1536;51.098;6.414;2023-08-20T08:29:19;22.97;;;15.97;;
3052;SDS011;1536;51.098;6.414;2023-08-20T08:31:45;22.80;;;17.53;;
3052;SDS011;1536;51.098;6.414;2023-08-20T08:34:13;23.13;;;17.80;;
3052;SDS011;1536;51.098;6.414;2023-08-20T08:36:40;22.50;;;17.07;;
3052;SDS011;1536;51.098;6.414;2023-08-20T08:39:07;19.40;;;17.30;;
3052;SDS011;1536;51.098;6.414;2023-08-20T08:41:34;20.20;;;16.70;;
3052;SDS011;1536;51.098;6.414;2023-08-20T08:44:04;22.80;;;17.43;;
3052;SDS011;1536;51.098;6.414;2023-08-20T08:46:32;18.13;;;15.07;;
3052;SDS011;1536;51.098;6.414;2023-08-20T08:49:01;18.73;;;16.00;;
3052;SDS011;1536;51.098;6.414;2023-08-20T08:51:32;18.53;;;15.00;;
3052;SDS011;1536;51.098;6.414;2023-08-20T08:54:01;20.07;;;15.50;;
3052;SDS011;1536;51.098;6.414;2023-08-20T08:56:28;14.50;;;13.00;;
3052;SDS011;1536;51.098;6.414;2023-08-20T08:58:55;16.10;;;13.77;;
3052;SDS011;1536;51.098;6.414;2023-08-20T09:01:22;15.73;;;13.17;;
3052;SDS011;1536;51.098;6.414;2023-08-20T09:03:49;15.30;;;11.70;;
3052;SDS011;1536;51.098;6.414;2023-08-20T09:06:15;16.20;;;12.17;;
3052;SDS011;1536;51.098;6.414;2023-08-20T09:08:43;13.90;;;10.97;;
3052;SDS011;1536;51.098;6.414;2023-08-20T09:11:10;14.70;;;11.97;;
3052;SDS011;1536;51.098;6.414;2023-08-20T09:13:37;16.50;;;11.90;;
3052;SDS011;1536;51.098;6.414;2023-08-20T09:16:06;15.03;;;11.27;;
3052;SDS011;1536;51.098;6.414;2023-08-20T09:18:37;17.20;;;13.77;;
3052;SDS011;1536;51.098;6.414;2023-08-20T09:21:06;15.67;;;12.80;;
3052;SDS011;1536;51.098;6.414;2023-08-20T09:23:33;16.17;;;11.67;;
3052;SDS011;1536;51.098;6.414;2023-08-20T09:26:02;12.63;;;10.70;;
3052;SDS011;1536;51.098;6.414;2023-08-20T09:28:29;13.70;;;8.60;;
3052;SDS011;1536;51.098;6.414;2023-08-20T09:31:07;12.70;;;8.63;;
3052;SDS011;1536;51.098;6.414;2023-08-20T09:33:34;10.20;;;8.87;;
3052;SDS011;1536;51.098;6.414;2023-08-20T09:36:00;14.13;;;9.67;;
3052;SDS011;1536;51.098;6.414;2023-08-20T09:38:29;13.13;;;9.93;;
3052;SDS011;1536;51.098;6.414;2023-08-20T09:40:56;10.60;;;8.50;;
3052;SDS011;1536;51.098;6.414;2023-08-20T09:43:24;11.93;;;9.90;;
3052;SDS011;1536;51.098;6.414;2023-08-20T09:45:54;13.43;;;10.00;;
3052;SDS011;1536;51.098;6.414;2023-08-20T09:48:22;10.97;;;9.00;;
3052;SDS011;1536;51.098;6.414;2023-08-20T09:50:53;14.83;;;10.87;;
3052;SDS011;1536;51.098;6.414;2023-08-20T09:53:26;12.17;;;10.10;;
3052;SDS011;1536;51.098;6.414;2023-08-20T09:56:01;10.77;;;9.67;;
3052;SDS011;1536;51.098;6.414;2023-08-20T09:58:36;9.90;;;8.53;;
3052;SDS011;1536;51.098;6.414;2023-08-20T10:01:03;10.57;;;8.20;;
3052;SDS011;1536;51.098;6.414;2023-08-20T10:03:31;11.20;;;8.10;;
3052;SDS011;1536;51.098;6.414;2023-08-20T10:05:58;9.67;;;7.20;;
3052;SDS011;1536;51.098;6.414;2023-08-20T10:08:27;10.67;;;8.00;;
3052;SDS011;1536;51.098;6.414;2023-08-20T10:10:53;10.17;;;8.73;;
3052;SDS011;1536;51.098;6.414;2023-08-20T10:13:20;10.90;;;8.13;;
3052;SDS011;1536;51.098;6.414;2023-08-20T10:15:48;9.80;;;8.63;;
3052;SDS011;1536;51.098;6.414;2023-08-20T10:18:18;12.60;;;8.73;;
3052;SDS011;1536;51.098;6.414;2023-08-20T10:20:45;12.07;;;7.80;;
3052;SDS011;1536;51.098;6.414;2023-08-20T10:23:12;9.97;;;7.60;;
3052;SDS011;1536;51.098;6.414;2023-08-20T10:25:42;10.80;;;8.47;;
3052;SDS011;1536;51.098;6.414;2023-08-20T10:28:12;10.30;;;7.70;;
3052;SDS011;1536;51.098;6.414;2023-08-20T10:33:33;8.57;;;7.67;;
3052;SDS011;1536;51.098;6.414;2023-08-20T10:36:07;13.77;;;9.47;;
3052;SDS011;1536;51.098;6.414;2023-08-20T10:38:40;11.80;;;9.23;;
3052;SDS011;1536;51.098;6.414;2023-08-20T10:41:07;13.50;;;10.93;;
3052;SDS011;1536;51.098;6.414;2023-08-20T10:43:35;10.13;;;9.07;;
3052;SDS011;1536;51.098;6.414;2023-08-20T10:46:04;12.30;;;9.87;;
3052;SDS011;1536;51.098;6.414;2023-08-20T10:48:33;11.83;;;9.43;;
3052;SDS011;1536;51.098;6.414;2023-08-20T10:51:05;10.23;;;9.23;;
3052;SDS011;1536;51.098;6.414;2023-08-20T10:53:36;12.07;;;10.00;;
3052;SDS011;1536;51.098;6.414;2023-08-20T10:56:13;17.70;;;10.90;;
3052;SDS011;1536;51.098;6.414;2023-08-20T10:58:41;10.70;;;8.70;;
3052;SDS011;1536;51.098;6.414;2023-08-20T11:01:14;10.70;;;9.40;;
3052;SDS011;1536;51.098;6.414;2023-08-20T11:03:42;15.03;;;9.67;;
3052;SDS011;1536;51.098;6.414;2023-08-20T11:06:10;11.03;;;9.53;;
3052;SDS011;1536;51.098;6.414;2023-08-20T11:08:37;9.90;;;8.90;;
3052;SDS011;1536;51.098;6.414;2023-08-20T11:11:04;13.20;;;10.30;;
3052;SDS011;1536;51.098;6.414;2023-08-20T11:13:32;11.70;;;9.77;;
3052;SDS011;1536;51.098;6.414;2023-08-20T11:15:59;15.27;;;9.43;;
3052;SDS011;1536;51.098;6.414;2023-08-20T11:18:27;9.93;;;8.70;;
3052;SDS011;1536;51.098;6.414;2023-08-20T11:20:55;10.80;;;9.03;;
3052;SDS011;1536;51.098;6.414;2023-08-20T11:23:23;9.23;;;8.30;;
3052;SDS011;1536;51.098;6.414;2023-08-20T11:25:50;9.93;;;8.30;;
3052;SDS011;1536;51.098;6.414;2023-08-20T11:28:17;11.07;;;8.17;;
3052;SDS011;1536;51.098;6.414;2023-08-20T11:30:43;10.57;;;8.73;;
3052;SDS011;1536;51.098;6.414;2023-08-20T11:33:12;10.80;;;7.80;;
3052;SDS011;1536;51.098;6.414;2023-08-20T11:35:40;9.57;;;8.50;;
3052;SDS011;1536;51.098;6.414;2023-08-20T11:38:09;9.80;;;8.77;;
3052;SDS011;1536;51.098;6.414;2023-08-20T11:40:36;12.13;;;8.70;;
3052;SDS011;1536;51.098;6.414;2023-08-20T11:43:02;13.17;;;9.80;;
3052;SDS011;1536;51.098;6.414;2023-08-20T11:45:31;7.93;;;7.23;;
3052;SDS011;1536;51.098;6.414;2023-08-20T11:47:58;9.17;;;8.23;;
3052;SDS011;1536;51.098;6.414;2023-08-20T11:50:25;9.43;;;8.00;;
3052;SDS011;1536;51.098;6.414;2023-08-20T11:52:54;8.53;;;7.70;;
3052;SDS011;1536;51.098;6.414;2023-08-20T11:55:23;8.50;;;7.50;;
3052;SDS011;1536;51.098;6.414;2023-08-20T11:57:50;9.20;;;8.33;;
3052;SDS011;1536;51.098;6.414;2023-08-20T12:00:23;10.17;;;8.30;;
3052;SDS011;1536;51.098;6.414;2023-08-20T12:02:52;10.50;;;8.50;;
3052;SDS011;1536;51.098;6.414;2023-08-20T12:05:19;10.60;;;7.37;;
3052;SDS011;1536;51.098;6.414;2023-08-20T12:07:55;8.90;;;8.00;;
3052;SDS011;1536;51.098;6.414;2023-08-20T12:10:23;8.63;;;7.73;;
3052;SDS011;1536;51.098;6.414;2023-08-20T12:12:51;7.47;;;6.30;;
3052;SDS011;1536;51.098;6.414;2023-08-20T12:15:18;8.00;;;6.87;;
3052;SDS011;1536;51.098;6.414;2023-08-20T12:17:55;9.33;;;5.43;;
3052;SDS011;1536;51.098;6.414;2023-08-20T12:20:27;6.50;;;5.10;;
3052;SDS011;1536;51.098;6.414;2023-08-20T12:22:56;6.90;;;5.77;;
3052;SDS011;1536;51.098;6.414;2023-08-20T12:25:24;6.20;;;5.50;;
3052;SDS011;1536;51.098;6.414;2023-08-20T12:27:51;6.70;;;5.77;;
3052;SDS011;1536;51.098;6.414;2023-08-20T12:30:18;9.60;;;5.30;;
3052;SDS011;1536;51.098;6.414;2023-08-20T12:32:45;5.43;;;4.90;;
3052;SDS011;1536;51.098;6.414;2023-08-20T12:35:12;6.00;;;5.40;;
3052;SDS011;1536;51.098;6.414;2023-08-20T12:37:39;8.33;;;5.80;;
3052;SDS011;1536;51.098;6.414;2023-08-20T12:40:08;6.73;;;5.93;;
3052;SDS011;1536;51.098;6.414;2023-08-20T12:42:37;10.83;;;5.70;;
3052;SDS011;1536;51.098;6.414;2023-08-20T12:45:04;6.90;;;5.87;;
3052;SDS011;1536;51.098;6.414;2023-08-20T12:47:32;9.13;;;5.90;;
3052;SDS011;1536;51.098;6.414;2023-08-20T12:49:58;7.63;;;5.40;;
3052;SDS011;1536;51.098;6.414;2023-08-20T12:52:25;7.53;;;5.27;;
3052;SDS011;1536;51.098;6.414;2023-08-20T12:54:52;6.00;;;5.40;;
3052;SDS011;1536;51.098;6.414;2023-08-20T12:57:20;8.17;;;5.57;;
3052;SDS011;1536;51.098;6.414;2023-08-20T12:59:47;6.63;;;5.23;;
3052;SDS011;1536;51.098;6.414;2023-08-20T13:02:14;6.30;;;5.00;;
3052;SDS011;1536;51.098;6.414;2023-08-20T13:04:40;4.03;;;3.73;;
3052;SDS011;1536;51.098;6.414;2023-08-20T13:07:08;5.13;;;4.30;;
3052;SDS011;1536;51.098;6.414;2023-08-20T13:09:35;10.70;;;5.40;;
3052;SDS011;1536;51.098;6.414;2023-08-20T13:12:02;5.93;;;5.33;;
3052;SDS011;1536;51.098;6.414;2023-08-20T13:14:35;6.20;;;4.33;;
3052;SDS011;1536;51.098;6.414;2023-08-20T13:17:03;3.70;;;3.40;;
3052;SDS011;1536;51.098;6.414;2023-08-20T13:19:30;4.27;;;3.87;;
3052;SDS011;1536;51.098;6.414;2023-08-20T13:21:57;5.07;;;4.20;;
3052;SDS011;1536;51.098;6.414;2023-08-20T13:24:23;4.60;;;3.70;;
3052;SDS011;1536;51.098;6.414;2023-08-20T13:26:50;4.70;;;4.13;;
3052;SDS011;1536;51.098;6.414;2023-08-20T13:29:18;5.80;;;4.00;;
3052;SDS011;1536;51.098;6.414;2023-08-20T13:31:46;5.40;;;3.97;;
3052;SDS011;1536;51.098;6.414;2023-08-20T13:34:12;5.93;;;3.77;;
3052;SDS011;1536;51.098;6.414;2023-08-20T13:36:39;5.87;;;3.80;;
3052;SDS011;1536;51.098;6.414;2023-08-20T13:39:06;5.03;;;4.33;;
3052;SDS011;1536;51.098;6.414;2023-08-20T13:41:32;5.80;;;3.90;;
3052;SDS011;1536;51.098;6.414;2023-08-20T13:43:59;4.17;;;3.77;;
3052;SDS011;1536;51.098;6.414;2023-08-20T13:46:26;4.00;;;3.60;;
3052;SDS011;1536;51.098;6.414;2023-08-20T13:48:54;6.20;;;4.03;;
3052;SDS011;1536;51.098;6.414;2023-08-20T13:51:21;3.63;;;3.33;;
3052;SDS011;1536;51.098;6.414;2023-08-20T13:53:48;4.90;;;3.87;;
3052;SDS011;1536;51.098;6.414;2023-08-20T13:56:14;5.17;;;3.60;;
3052;SDS011;1536;51.098;6.414;2023-08-20T13:58:41;7.10;;;3.87;;
3052;SDS011;1536;51.098;6.414;2023-08-20T14:01:08;5.10;;;3.63;;
3052;SDS011;1536;51.098;6.414;2023-08-20T14:03:34;3.53;;;3.23;;
3052;SDS011;1536;51.098;6.414;2023-08-20T14:06:02;6.83;;;3.63;;
3052;SDS011;1536;51.098;6.414;2023-08-20T14:08:29;5.00;;;3.57;;
3052;SDS011;1536;51.098;6.414;2023-08-20T14:10:56;4.80;;;3.73;;
3052;SDS011;1536;51.098;6.414;2023-08-20T14:13:22;5.17;;;3.87;;
3052;SDS011;1536;51.098;6.414;2023-08-20T14:15:49;3.47;;;3.17;;
3052;SDS011;1536;51.098;6.414;2023-08-20T14:18:16;6.03;;;3.83;;
3052;SDS011;1536;51.098;6.414;2023-08-20T14:20:43;4.93;;;3.67;;
3052;SDS011;1536;51.098;6.414;2023-08-20T14:23:11;5.13;;;4.00;;
3052;SDS011;1536;51.098;6.414;2023-08-20T14:25:37;5.10;;;3.40;;
3052;SDS011;1536;51.098;6.414;2023-08-20T14:28:05;3.60;;;3.30;;
3052;SDS011;1536;51.098;6.414;2023-08-20T14:30:34;4.77;;;3.90;;
3052;SDS011;1536;51.098;6.414;2023-08-20T14:33:02;4.90;;;3.77;;
3052;SDS011;1536;51.098;6.414;2023-08-20T14:35:29;4.10;;;3.70;;
3052;SDS011;1536;51.098;6.414;2023-08-20T14:37:56;4.37;;;3.67;;
3052;SDS011;1536;51.098;6.414;2023-08-20T14:40:24;4.90;;;2.93;;
3052;SDS011;1536;51.098;6.414;2023-08-20T14:42:50;3.60;;;3.30;;
3052;SDS011;1536;51.098;6.414;2023-08-20T14:45:17;4.33;;;3.47;;
3052;SDS011;1536;51.098;6.414;2023-08-20T14:47:44;5.80;;;3.40;;
3052;SDS011;1536;51.098;6.414;2023-08-20T14:50:10;3.90;;;3.53;;
3052;SDS011;1536;51.098;6.414;2023-08-20T14:52:37;4.33;;;3.27;;
3052;SDS011;1536;51.098;6.414;2023-08-20T14:55:04;7.27;;;3.50;;
3052;SDS011;1536;51.098;6.414;2023-08-20T14:57:34;8.93;;;3.50;;
3052;SDS011;1536;51.098;6.414;2023-08-20T15:00:03;5.30;;;3.53;;
3052;SDS011;1536;51.098;6.414;2023-08-20T15:02:32;7.07;;;4.00;;
3052;SDS011;1536;51.098;6.414;2023-08-20T15:04:59;4.33;;;3.60;;
3052;SDS011;1536;51.098;6.414;2023-08-20T15:07:26;4.90;;;3.30;;
3052;SDS011;1536;51.098;6.414;2023-08-20T15:09:53;4.37;;;3.30;;